sensor_id;sensor_type;location;lat;lon;timestamp;P1;durP1;ratioP1;P2;durP2;ratioP2
58460;SDS011;45558;37.752;-97.822;2022-10-19T00:01:05;13.65;;;1.65;;
58460;SDS011;45558;37.752;-97.822;2022-10-19T00:03:33;11.32;;;1.42;;
58460;SDS011;45558;37.752;-97.822;2022-10-19T00:05:59;9.55;;;1.85;;
58460;SDS011;45558;37.752;-97.822;2022-10-19T00:08:25;13.85;;;1.42;;
58460;SDS011;45558;37.752;-97.822;2022-10-19T00:10:51;6.88;;;2.13;;
58460;SDS011;45558;37.752;-97.822;2022-10-19T00:13:16;15.93;;;2.08;;
58460;SDS011;45558;37.752;-97.822;2022-10-19T00:15:42;12.25;;;1.63;;
58460;SDS011;45558;37.752;-97.822;2022-10-19T00:18:09;10.23;;;1.50;;
58460;SDS011;45558;37.752;-97.822;2022-10-19T00:20:35;8.10;;;1.60;;
58460;SDS011;45558;37.752;-97.822;2022-10-19T00:23:01;8.02;;;1.73;;
58460;SDS011;45558;37.752;-97.822;2022-10-19T00:25:27;8.85;;;1.73;;
58460;SDS011;45558;37.752;-97.822;2022-10-19T00:27:52;6.43;;;1.58;;
58460;SDS011;45558;37.752;-97.822;2022-10-19T00:30:18;5.35;;;1.40;;
58460;SDS011;45558;37.752;-97.822;2022-10-19T00:32:43;12.18;;;1.98;;
58460;SDS011;45558;37.752;-97.822;2022-10-19T00:35:09;15.90;;;2.10;;
58460;SDS011;45558;37.752;-97.822;2022-10-19T00:37:35;23.85;;;1.90;;
58460;SDS011;45558;37.752;-97.822;2022-10-19T00:40:02;8.02;;;1.77;;
58460;SDS011;45558;37.752;-97.822;2022-10-19T00:42:27;12.35;;;2.55;;
58460;SDS011;45558;37.752;-97.822;2022-10-19T00:44:57;16.88;;;2.47;;
58460;SDS011;45558;37.752;-97.822;2022-10-19T00:47:23;13.75;;;2.10;;
58460;SDS011;45558;37.752;-97.822;2022-10-19T00:49:49;11.02;;;2.20;;
58460;SDS011;45558;37.752;-97.822;2022-10-19T00:52:15;10.30;;;3.17;;
58460;SDS011;45558;37.752;-97.822;2022-10-19T00:54:43;10.73;;;2.17;;
58460;SDS011;45558;37.752;-97.822;2022-10-19T00:57:10;17.88;;;2.65;;
58460;SDS011;45558;37.752;-97.822;2022-10-19T00:59:37;11.77;;;2.65;;
58460;SDS011;45558;37.752;-97.822;2022-10-19T01:02:04;12.23;;;2.40;;
58460;SDS011;45558;37.752;-97.822;2022-10-19T01:04:31;13.00;;;3.05;;
58460;SDS011;45558;37.752;-97.822;2022-10-19T01:06:59;10.90;;;2.20;;
58460;SDS011;45558;37.752;-97.822;2022-10-19T01:09:26;12.48;;;2.90;;
58460;SDS011;45558;37.752;-97.822;2022-10-19T01:25:35;12.27;;;2.65;;
58460;SDS011;45558;37.752;-97.822;2022-10-19T01:28:10;15.35;;;2.72;;
58460;SDS011;45558;37.752;-97.822;2022-10-19T01:30:52;12.93;;;2.78;;
58460;SDS011;45558;37.752;-97.822;2022-10-19T01:33:50;17.20;;;3.30;;
58460;SDS011;45558;37.752;-97.822;2022-10-19T01:41:49;15.43;;;3.72;;
58460;SDS011;45558;37.752;-97.822;2022-10-19T01:44:36;11.63;;;3.85;;
58460;SDS011;45558;37.752;-97.822;2022-10-19T01:47:07;17.50;;;3.97;;
58460;SDS011;45558;37.752;-97.822;2022-10-19T01:52:21;14.20;;;4.75;;
58460;SDS011;45558;37.752;-97.822;2022-10-19T01:54:48;11.68;;;4.30;;
58460;SDS011;45558;37.752;-97.822;2022-10-19T01:57:20;11.13;;;3.90;;
58460;SDS011;45558;37.752;-97.822;2022-10-19T01:59:49;21.90;;;4.45;;
58460;SDS011;45558;37.752;-97.822;2022-10-19T02:02:15;10.52;;;4.35;;
58460;SDS011;45558;37.752;-97.822;2022-10-19T02:04:41;16.10;;;5.15;;
58460;SDS011;45558;37.752;-97.822;2022-10-19T02:07:07;22.38;;;4.28;;
58460;SDS011;45558;37.752;-97.822;2022-10-19T02:09:32;17.33;;;4.10;;
58460;SDS011;45558;37.752;-97.822;2022-10-19T02:11:59;18.52;;;4.68;;
58460;SDS011;45558;37.752;-97.822;2022-10-19T02:14:30;16.42;;;4.68;;
58460;SDS011;45558;37.752;-97.822;2022-10-19T02:17:02;14.90;;;4.13;;
58460;SDS011;45558;37.752;-97.822;2022-10-19T02:19:30;16.25;;;4.63;;
58460;SDS011;45558;37.752;-97.822;2022-10-19T02:21:55;20.83;;;4.05;;
58460;SDS011;45558;37.752;-97.822;2022-10-19T02:24:21;18.25;;;4.15;;
58460;SDS011;45558;37.752;-97.822;2022-10-19T02:26:47;14.73;;;5.65;;
58460;SDS011;45558;37.752;-97.822;2022-10-19T02:29:13;18.08;;;5.07;;
58460;SDS011;45558;37.752;-97.822;2022-10-19T02:31:39;15.60;;;4.82;;
58460;SDS011;45558;37.752;-97.822;2022-10-19T02:34:04;20.88;;;4.50;;
58460;SDS011;45558;37.752;-97.822;2022-10-19T02:36:30;10.68;;;4.03;;
58460;SDS011;45558;37.752;-97.822;2022-10-19T02:38:57;25.75;;;4.95;;
58460;SDS011;45558;37.752;-97.822;2022-10-19T02:41:23;15.80;;;3.88;;
58460;SDS011;45558;37.752;-97.822;2022-10-19T02:43:55;16.00;;;4.90;;
58460;SDS011;45558;37.752;-97.822;2022-10-19T02:46:45;20.05;;;4.32;;
58460;SDS011;45558;37.752;-97.822;2022-10-19T02:49:09;16.63;;;5.22;;
58460;SDS011;45558;37.752;-97.822;2022-10-19T02:51:36;11.70;;;3.88;;
58460;SDS011;45558;37.752;-97.822;2022-10-19T02:54:04;13.00;;;3.50;;
58460;SDS011;45558;37.752;-97.822;2022-10-19T02:56:31;17.58;;;4.15;;
58460;SDS011;45558;37.752;-97.822;2022-10-19T02:58:57;19.52;;;5.75;;
58460;SDS011;45558;37.752;-97.822;2022-10-19T03:01:22;13.10;;;3.97;;
58460;SDS011;45558;37.752;-97.822;2022-10-19T03:03:48;13.55;;;3.53;;
58460;SDS011;45558;37.752;-97.822;2022-10-19T03:06:14;12.73;;;4.20;;
58460;SDS011;45558;37.752;-97.822;2022-10-19T03:08:39;13.65;;;3.75;;
58460;SDS011;45558;37.752;-97.822;2022-10-19T03:11:05;15.48;;;3.70;;
58460;SDS011;45558;37.752;-97.822;2022-10-19T03:13:30;16.50;;;3.95;;
58460;SDS011;45558;37.752;-97.822;2022-10-19T03:16:05;14.95;;;3.83;;
58460;SDS011;45558;37.752;-97.822;2022-10-19T03:18:33;13.35;;;3.67;;
58460;SDS011;45558;37.752;-97.822;2022-10-19T03:21:03;16.02;;;4.50;;
58460;SDS011;45558;37.752;-97.822;2022-10-19T03:23:29;17.83;;;3.53;;
58460;SDS011;45558;37.752;-97.822;2022-10-19T03:25:56;16.23;;;5.70;;
58460;SDS011;45558;37.752;-97.822;2022-10-19T03:28:23;18.15;;;3.45;;
58460;SDS011;45558;37.752;-97.822;2022-10-19T03:30:48;20.77;;;4.35;;
58460;SDS011;45558;37.752;-97.822;2022-10-19T03:33:14;15.50;;;4.25;;
58460;SDS011;45558;37.752;-97.822;2022-10-19T03:35:39;15.77;;;5.60;;
58460;SDS011;45558;37.752;-97.822;2022-10-19T03:38:05;23.02;;;4.53;;
58460;SDS011;45558;37.752;-97.822;2022-10-19T03:40:30;18.55;;;4.63;;
58460;SDS011;45558;37.752;-97.822;2022-10-19T03:42:55;25.98;;;5.65;;
58460;SDS011;45558;37.752;-97.822;2022-10-19T03:45:21;12.13;;;3.60;;
58460;SDS011;45558;37.752;-97.822;2022-10-19T03:47:49;10.23;;;3.20;;
58460;SDS011;45558;37.752;-97.822;2022-10-19T03:50:15;11.27;;;3.50;;
58460;SDS011;45558;37.752;-97.822;2022-10-19T03:52:41;14.82;;;3.70;;
58460;SDS011;45558;37.752;-97.822;2022-10-19T03:55:07;9.75;;;3.35;;
58460;SDS011;45558;37.752;-97.822;2022-10-19T03:57:33;6.03;;;3.17;;
58460;SDS011;45558;37.752;-97.822;2022-10-19T03:59:58;17.45;;;3.83;;
58460;SDS011;45558;37.752;-97.822;2022-10-19T04:02:23;10.02;;;3.00;;
58460;SDS011;45558;37.752;-97.822;2022-10-19T04:04:49;8.65;;;2.75;;
58460;SDS011;45558;37.752;-97.822;2022-10-19T04:07:15;13.57;;;4.13;;
58460;SDS011;45558;37.752;-97.822;2022-10-19T04:09:40;8.80;;;2.92;;
58460;SDS011;45558;37.752;-97.822;2022-10-19T04:12:05;18.52;;;3.95;;
58460;SDS011;45558;37.752;-97.822;2022-10-19T04:14:31;19.13;;;4.32;;
58460;SDS011;45558;37.752;-97.822;2022-10-19T04:16:56;14.40;;;3.08;;
58460;SDS011;45558;37.752;-97.822;2022-10-19T04:19:21;12.98;;;3.75;;
58460;SDS011;45558;37.752;-97.822;2022-10-19T04:21:47;12.23;;;4.00;;
58460;SDS011;45558;37.752;-97.822;2022-10-19T04:24:14;14.43;;;3.45;;
58460;SDS011;45558;37.752;-97.822;2022-10-19T04:26:41;10.57;;;3.83;;
58460;SDS011;45558;37.752;-97.822;2022-10-19T04:29:08;10.57;;;3.47;;
58460;SDS011;45558;37.752;-97.822;2022-10-19T04:31:34;14.15;;;3.22;;
58460;SDS011;45558;37.752;-97.822;2022-10-19T04:34:00;9.60;;;3.60;;
58460;SDS011;45558;37.752;-97.822;2022-10-19T04:36:26;8.85;;;3.17;;
58460;SDS011;45558;37.752;-97.822;2022-10-19T04:38:51;7.32;;;2.85;;
58460;SDS011;45558;37.752;-97.822;2022-10-19T04:41:17;9.30;;;2.38;;
58460;SDS011;45558;37.752;-97.822;2022-10-19T04:43:44;5.53;;;2.22;;
58460;SDS011;45558;37.752;-97.822;2022-10-19T04:46:13;6.43;;;1.88;;
58460;SDS011;45558;37.752;-97.822;2022-10-19T04:48:40;4.47;;;1.83;;
58460;SDS011;45558;37.752;-97.822;2022-10-19T04:51:06;5.20;;;2.00;;
58460;SDS011;45558;37.752;-97.822;2022-10-19T04:53:32;2.78;;;1.70;;
58460;SDS011;45558;37.752;-97.822;2022-10-19T04:55:58;9.30;;;2.03;;
58460;SDS011;45558;37.752;-97.822;2022-10-19T04:58:23;4.38;;;1.40;;
58460;SDS011;45558;37.752;-97.822;2022-10-19T05:00:49;4.90;;;1.75;;
58460;SDS011;45558;37.752;-97.822;2022-10-19T05:03:14;6.15;;;2.40;;
58460;SDS011;45558;37.752;-97.822;2022-10-19T05:05:40;4.72;;;1.70;;
58460;SDS011;45558;37.752;-97.822;2022-10-19T05:08:05;3.65;;;1.45;;
58460;SDS011;45558;37.752;-97.822;2022-10-19T05:10:31;5.43;;;1.80;;
58460;SDS011;45558;37.752;-97.822;2022-10-19T05:12:56;3.83;;;1.63;;
58460;SDS011;45558;37.752;-97.822;2022-10-19T05:15:24;8.82;;;2.28;;
58460;SDS011;45558;37.752;-97.822;2022-10-19T05:17:50;9.00;;;3.75;;
58460;SDS011;45558;37.752;-97.822;2022-10-19T05:20:15;6.95;;;2.40;;
58460;SDS011;45558;37.752;-97.822;2022-10-19T05:22:40;8.13;;;2.42;;
58460;SDS011;45558;37.752;-97.822;2022-10-19T05:25:06;5.43;;;2.38;;
58460;SDS011;45558;37.752;-97.822;2022-10-19T05:27:32;5.55;;;2.38;;
58460;SDS011;45558;37.752;-97.822;2022-10-19T05:29:58;9.88;;;5.68;;
58460;SDS011;45558;37.752;-97.822;2022-10-19T05:32:23;10.63;;;4.30;;
58460;SDS011;45558;37.752;-97.822;2022-10-19T05:34:48;8.98;;;2.95;;
58460;SDS011;45558;37.752;-97.822;2022-10-19T05:37:17;4.28;;;2.13;;
58460;SDS011;45558;37.752;-97.822;2022-10-19T05:39:42;7.50;;;2.53;;
58460;SDS011;45558;37.752;-97.822;2022-10-19T05:42:08;9.50;;;2.92;;
58460;SDS011;45558;37.752;-97.822;2022-10-19T05:44:33;4.72;;;2.35;;
58460;SDS011;45558;37.752;-97.822;2022-10-19T05:47:01;7.85;;;2.78;;
58460;SDS011;45558;37.752;-97.822;2022-10-19T05:49:26;7.43;;;2.50;;
58460;SDS011;45558;37.752;-97.822;2022-10-19T05:51:52;3.55;;;1.60;;
58460;SDS011;45558;37.752;-97.822;2022-10-19T05:54:19;9.05;;;1.80;;
58460;SDS011;45558;37.752;-97.822;2022-10-19T05:56:45;3.88;;;2.28;;
58460;SDS011;45558;37.752;-97.822;2022-10-19T05:59:14;8.40;;;2.65;;
58460;SDS011;45558;37.752;-97.822;2022-10-19T06:01:43;7.40;;;2.60;;
58460;SDS011;45558;37.752;-97.822;2022-10-19T06:04:09;6.30;;;3.63;;
58460;SDS011;45558;37.752;-97.822;2022-10-19T06:06:35;5.97;;;2.30;;
58460;SDS011;45558;37.752;-97.822;2022-10-19T06:09:00;5.57;;;2.58;;
58460;SDS011;45558;37.752;-97.822;2022-10-19T06:11:30;8.48;;;2.65;;
58460;SDS011;45558;37.752;-97.822;2022-10-19T06:13:59;6.82;;;3.33;;
58460;SDS011;45558;37.752;-97.822;2022-10-19T06:16:26;14.13;;;4.93;;
58460;SDS011;45558;37.752;-97.822;2022-10-19T06:18:53;7.07;;;3.15;;
58460;SDS011;45558;37.752;-97.822;2022-10-19T06:21:19;6.25;;;2.60;;
58460;SDS011;45558;37.752;-97.822;2022-10-19T06:23:50;7.93;;;2.72;;
58460;SDS011;45558;37.752;-97.822;2022-10-19T06:26:16;10.20;;;3.50;;
58460;SDS011;45558;37.752;-97.822;2022-10-19T06:28:44;5.22;;;2.00;;
58460;SDS011;45558;37.752;-97.822;2022-10-19T06:31:10;7.13;;;3.50;;
58460;SDS011;45558;37.752;-97.822;2022-10-19T06:33:40;3.95;;;2.15;;
58460;SDS011;45558;37.752;-97.822;2022-10-19T06:36:11;7.18;;;2.13;;
58460;SDS011;45558;37.752;-97.822;2022-10-19T06:38:38;8.45;;;1.80;;
58460;SDS011;45558;37.752;-97.822;2022-10-19T06:41:04;5.05;;;2.45;;
58460;SDS011;45558;37.752;-97.822;2022-10-19T06:43:30;12.20;;;4.43;;
58460;SDS011;45558;37.752;-97.822;2022-10-19T06:45:55;5.05;;;2.78;;
58460;SDS011;45558;37.752;-97.822;2022-10-19T06:48:21;9.13;;;2.47;;
58460;SDS011;45558;37.752;-97.822;2022-10-19T06:50:54;8.13;;;2.45;;
58460;SDS011;45558;37.752;-97.822;2022-10-19T06:53:23;7.75;;;2.28;;
58460;SDS011;45558;37.752;-97.822;2022-10-19T06:55:48;6.13;;;3.70;;
58460;SDS011;45558;37.752;-97.822;2022-10-19T06:58:13;5.78;;;2.25;;
58460;SDS011;45558;37.752;-97.822;2022-10-19T07:00:39;6.43;;;4.35;;
58460;SDS011;45558;37.752;-97.822;2022-10-19T07:03:04;3.15;;;2.47;;
58460;SDS011;45558;37.752;-97.822;2022-10-19T07:05:31;5.68;;;2.03;;
58460;SDS011;45558;37.752;-97.822;2022-10-19T07:07:56;3.05;;;1.98;;
58460;SDS011;45558;37.752;-97.822;2022-10-19T07:10:22;1.52;;;1.17;;
58460;SDS011;45558;37.752;-97.822;2022-10-19T07:12:47;3.17;;;1.40;;
58460;SDS011;45558;37.752;-97.822;2022-10-19T07:15:14;5.63;;;1.70;;
58460;SDS011;45558;37.752;-97.822;2022-10-19T07:17:39;7.57;;;2.97;;
58460;SDS011;45558;37.752;-97.822;2022-10-19T07:20:05;7.55;;;3.42;;
58460;SDS011;45558;37.752;-97.822;2022-10-19T07:22:30;8.50;;;2.45;;
58460;SDS011;45558;37.752;-97.822;2022-10-19T07:24:56;6.75;;;3.20;;
58460;SDS011;45558;37.752;-97.822;2022-10-19T07:27:22;10.10;;;3.85;;
58460;SDS011;45558;37.752;-97.822;2022-10-19T07:29:47;7.50;;;3.15;;
58460;SDS011;45558;37.752;-97.822;2022-10-19T07:32:13;7.28;;;2.78;;
58460;SDS011;45558;37.752;-97.822;2022-10-19T07:34:38;8.73;;;3.10;;
58460;SDS011;45558;37.752;-97.822;2022-10-19T07:37:04;14.77;;;5.00;;
58460;SDS011;45558;37.752;-97.822;2022-10-19T07:39:31;5.25;;;2.83;;
58460;SDS011;45558;37.752;-97.822;2022-10-19T07:41:57;8.40;;;2.55;;
58460;SDS011;45558;37.752;-97.822;2022-10-19T07:44:22;6.43;;;3.35;;
58460;SDS011;45558;37.752;-97.822;2022-10-19T07:46:48;5.40;;;2.30;;
58460;SDS011;45558;37.752;-97.822;2022-10-19T07:49:14;5.95;;;2.30;;
58460;SDS011;45558;37.752;-97.822;2022-10-19T07:51:40;9.45;;;3.83;;
58460;SDS011;45558;37.752;-97.822;2022-10-19T07:54:06;5.43;;;4.47;;
58460;SDS011;45558;37.752;-97.822;2022-10-19T07:56:31;3.88;;;2.22;;
58460;SDS011;45558;37.752;-97.822;2022-10-19T07:58:58;8.50;;;4.00;;
58460;SDS011;45558;37.752;-97.822;2022-10-19T08:01:31;6.07;;;3.20;;
58460;SDS011;45558;37.752;-97.822;2022-10-19T08:03:59;9.18;;;2.75;;
58460;SDS011;45558;37.752;-97.822;2022-10-19T08:06:25;5.00;;;2.33;;
58460;SDS011;45558;37.752;-97.822;2022-10-19T08:08:51;6.75;;;2.60;;
58460;SDS011;45558;37.752;-97.822;2022-10-19T08:11:21;9.35;;;2.97;;
58460;SDS011;45558;37.752;-97.822;2022-10-19T08:13:54;5.22;;;2.50;;
58460;SDS011;45558;37.752;-97.822;2022-10-19T08:18:47;10.63;;;2.72;;
58460;SDS011;45558;37.752;-97.822;2022-10-19T08:21:14;8.05;;;2.80;;
58460;SDS011;45558;37.752;-97.822;2022-10-19T08:23:39;8.43;;;2.92;;
58460;SDS011;45558;37.752;-97.822;2022-10-19T08:26:05;6.28;;;3.15;;
58460;SDS011;45558;37.752;-97.822;2022-10-19T08:28:30;7.43;;;3.00;;
58460;SDS011;45558;37.752;-97.822;2022-10-19T08:30:56;8.68;;;4.13;;
58460;SDS011;45558;37.752;-97.822;2022-10-19T08:33:23;5.93;;;3.20;;
58460;SDS011;45558;37.752;-97.822;2022-10-19T08:35:49;7.63;;;3.75;;
58460;SDS011;45558;37.752;-97.822;2022-10-19T08:38:14;10.85;;;4.22;;
58460;SDS011;45558;37.752;-97.822;2022-10-19T08:40:40;14.77;;;5.45;;
58460;SDS011;45558;37.752;-97.822;2022-10-19T08:45:52;10.32;;;4.13;;
58460;SDS011;45558;37.752;-97.822;2022-10-19T08:48:29;12.82;;;6.55;;
58460;SDS011;45558;37.752;-97.822;2022-10-19T08:50:57;13.07;;;3.78;;
58460;SDS011;45558;37.752;-97.822;2022-10-19T09:10:03;7.00;;;3.15;;
58460;SDS011;45558;37.752;-97.822;2022-10-19T09:12:44;5.43;;;2.90;;
58460;SDS011;45558;37.752;-97.822;2022-10-19T09:15:12;6.60;;;2.22;;
58460;SDS011;45558;37.752;-97.822;2022-10-19T09:17:40;8.35;;;2.45;;
58460;SDS011;45558;37.752;-97.822;2022-10-19T09:20:12;7.68;;;2.33;;
58460;SDS011;45558;37.752;-97.822;2022-10-19T09:22:49;7.82;;;2.08;;
58460;SDS011;45558;37.752;-97.822;2022-10-19T09:25:19;6.10;;;3.13;;
58460;SDS011;45558;37.752;-97.822;2022-10-19T09:27:47;5.90;;;1.63;;
58460;SDS011;45558;37.752;-97.822;2022-10-19T09:30:22;4.00;;;1.80;;
58460;SDS011;45558;37.752;-97.822;2022-10-19T09:32:49;4.43;;;1.40;;
58460;SDS011;45558;37.752;-97.822;2022-10-19T09:35:31;8.02;;;1.80;;
58460;SDS011;45558;37.752;-97.822;2022-10-19T09:38:03;5.32;;;2.63;;
58460;SDS011;45558;37.752;-97.822;2022-10-19T09:40:29;6.35;;;2.70;;
58460;SDS011;45558;37.752;-97.822;2022-10-19T09:42:55;11.85;;;2.95;;
58460;SDS011;45558;37.752;-97.822;2022-10-19T09:47:56;8.43;;;2.72;;
58460;SDS011;45558;37.752;-97.822;2022-10-19T09:50:25;11.20;;;4.13;;
58460;SDS011;45558;37.752;-97.822;2022-10-19T09:52:55;7.57;;;2.83;;
58460;SDS011;45558;37.752;-97.822;2022-10-19T09:55:26;8.55;;;2.78;;
58460;SDS011;45558;37.752;-97.822;2022-10-19T09:58:03;13.73;;;5.13;;
58460;SDS011;45558;37.752;-97.822;2022-10-19T10:00:36;14.48;;;3.13;;
58460;SDS011;45558;37.752;-97.822;2022-10-19T10:03:30;7.63;;;3.15;;
58460;SDS011;45558;37.752;-97.822;2022-10-19T10:06:09;9.23;;;3.88;;
58460;SDS011;45558;37.752;-97.822;2022-10-19T10:08:38;7.40;;;3.40;;
58460;SDS011;45558;37.752;-97.822;2022-10-19T10:11:14;7.88;;;3.22;;
58460;SDS011;45558;37.752;-97.822;2022-10-19T10:13:48;11.63;;;2.38;;
58460;SDS011;45558;37.752;-97.822;2022-10-19T10:16:15;5.78;;;2.20;;
58460;SDS011;45558;37.752;-97.822;2022-10-19T10:26:39;6.70;;;2.22;;
58460;SDS011;45558;37.752;-97.822;2022-10-19T10:29:52;5.45;;;1.67;;
58460;SDS011;45558;37.752;-97.822;2022-10-19T10:32:04;10.57;;;3.30;;
58460;SDS011;45558;37.752;-97.822;2022-10-19T10:34:47;11.43;;;3.60;;
58460;SDS011;45558;37.752;-97.822;2022-10-19T10:39:44;5.85;;;1.92;;
58460;SDS011;45558;37.752;-97.822;2022-10-19T10:42:10;6.60;;;1.70;;
58460;SDS011;45558;37.752;-97.822;2022-10-19T10:44:44;3.22;;;1.40;;
58460;SDS011;45558;37.752;-97.822;2022-10-19T10:47:12;3.95;;;2.10;;
58460;SDS011;45558;37.752;-97.822;2022-10-19T10:49:39;3.38;;;1.30;;
58460;SDS011;45558;37.752;-97.822;2022-10-19T10:52:10;4.53;;;1.80;;
58460;SDS011;45558;37.752;-97.822;2022-10-19T10:54:39;7.40;;;1.63;;
58460;SDS011;45558;37.752;-97.822;2022-10-19T11:02:13;7.07;;;2.92;;
58460;SDS011;45558;37.752;-97.822;2022-10-19T11:04:48;3.83;;;1.20;;
58460;SDS011;45558;37.752;-97.822;2022-10-19T11:07:24;4.18;;;1.55;;
58460;SDS011;45558;37.752;-97.822;2022-10-19T11:09:58;3.42;;;1.25;;
58460;SDS011;45558;37.752;-97.822;2022-10-19T11:13:01;3.78;;;1.42;;
58460;SDS011;45558;37.752;-97.822;2022-10-19T11:15:27;3.53;;;1.50;;
58460;SDS011;45558;37.752;-97.822;2022-10-19T11:17:58;3.35;;;1.17;;
58460;SDS011;45558;37.752;-97.822;2022-10-19T11:20:34;2.78;;;1.30;;
58460;SDS011;45558;37.752;-97.822;2022-10-19T11:23:11;2.45;;;1.40;;
58460;SDS011;45558;37.752;-97.822;2022-10-19T11:26:09;2.20;;;0.70;;
58460;SDS011;45558;37.752;-97.822;2022-10-19T11:28:55;2.80;;;0.98;;
58460;SDS011;45558;37.752;-97.822;2022-10-19T11:37:29;6.57;;;0.90;;
58460;SDS011;45558;37.752;-97.822;2022-10-19T11:40:13;6.05;;;1.27;;
58460;SDS011;45558;37.752;-97.822;2022-10-19T11:42:46;2.22;;;0.82;;
58460;SDS011;45558;37.752;-97.822;2022-10-19T11:45:48;1.70;;;0.70;;
58460;SDS011;45558;37.752;-97.822;2022-10-19T11:48:34;2.75;;;0.82;;
58460;SDS011;45558;37.752;-97.822;2022-10-19T12:05:38;2.50;;;0.80;;
58460;SDS011;45558;37.752;-97.822;2022-10-19T12:11:25;4.47;;;1.25;;
58460;SDS011;45558;37.752;-97.822;2022-10-19T12:13:58;8.52;;;2.85;;
58460;SDS011;45558;37.752;-97.822;2022-10-19T12:16:29;7.80;;;1.20;;
58460;SDS011;45558;37.752;-97.822;2022-10-19T12:19:00;6.57;;;1.58;;
58460;SDS011;45558;37.752;-97.822;2022-10-19T12:21:32;5.18;;;1.60;;
58460;SDS011;45558;37.752;-97.822;2022-10-19T12:24:00;3.67;;;1.42;;
58460;SDS011;45558;37.752;-97.822;2022-10-19T12:26:30;4.28;;;1.20;;
58460;SDS011;45558;37.752;-97.822;2022-10-19T12:29:01;4.55;;;0.95;;
58460;SDS011;45558;37.752;-97.822;2022-10-19T12:31:28;7.35;;;1.90;;
58460;SDS011;45558;37.752;-97.822;2022-10-19T12:47:20;15.85;;;4.53;;
58460;SDS011;45558;37.752;-97.822;2022-10-19T12:49:47;5.50;;;1.80;;
58460;SDS011;45558;37.752;-97.822;2022-10-19T12:52:14;4.65;;;1.50;;
58460;SDS011;45558;37.752;-97.822;2022-10-19T12:55:09;3.92;;;0.65;;
58460;SDS011;45558;37.752;-97.822;2022-10-19T12:57:47;3.53;;;1.00;;
58460;SDS011;45558;37.752;-97.822;2022-10-19T13:00:20;3.97;;;0.80;;
58460;SDS011;45558;37.752;-97.822;2022-10-19T13:02:47;4.07;;;1.10;;
58460;SDS011;45558;37.752;-97.822;2022-10-19T13:05:23;3.60;;;0.85;;
58460;SDS011;45558;37.752;-97.822;2022-10-19T13:07:50;1.60;;;0.60;;
58460;SDS011;45558;37.752;-97.822;2022-10-19T13:10:25;4.90;;;0.90;;
58460;SDS011;45558;37.752;-97.822;2022-10-19T13:12:52;1.23;;;0.80;;
58460;SDS011;45558;37.752;-97.822;2022-10-19T13:18:10;4.47;;;0.63;;
58460;SDS011;45558;37.752;-97.822;2022-10-19T13:25:33;3.05;;;0.70;;
58460;SDS011;45558;37.752;-97.822;2022-10-19T13:35:48;6.95;;;2.13;;
58460;SDS011;45558;37.752;-97.822;2022-10-19T13:41:12;6.07;;;1.55;;
58460;SDS011;45558;37.752;-97.822;2022-10-19T14:11:37;8.52;;;2.22;;
58460;SDS011;45558;37.752;-97.822;2022-10-19T14:16:58;6.78;;;1.92;;
58460;SDS011;45558;37.752;-97.822;2022-10-19T14:19:25;11.15;;;2.53;;
58460;SDS011;45558;37.752;-97.822;2022-10-19T14:21:53;6.10;;;2.40;;
58460;SDS011;45558;37.752;-97.822;2022-10-19T14:24:20;10.40;;;2.85;;
58460;SDS011;45558;37.752;-97.822;2022-10-19T14:26:50;6.90;;;2.30;;
58460;SDS011;45558;37.752;-97.822;2022-10-19T14:29:15;16.02;;;3.03;;
58460;SDS011;45558;37.752;-97.822;2022-10-19T14:31:41;9.52;;;2.40;;
58460;SDS011;45558;37.752;-97.822;2022-10-19T14:34:07;6.28;;;2.28;;
58460;SDS011;45558;37.752;-97.822;2022-10-19T14:36:36;8.85;;;2.17;;
58460;SDS011;45558;37.752;-97.822;2022-10-19T14:41:30;5.55;;;2.08;;
58460;SDS011;45558;37.752;-97.822;2022-10-19T14:44:00;9.88;;;3.08;;
58460;SDS011;45558;37.752;-97.822;2022-10-19T14:46:46;5.80;;;2.22;;
58460;SDS011;45558;37.752;-97.822;2022-10-19T14:49:12;6.22;;;2.08;;
58460;SDS011;45558;37.752;-97.822;2022-10-19T14:51:59;12.40;;;2.60;;
58460;SDS011;45558;37.752;-97.822;2022-10-19T14:54:26;15.93;;;2.75;;
58460;SDS011;45558;37.752;-97.822;2022-10-19T15:00:10;6.85;;;2.40;;
58460;SDS011;45558;37.752;-97.822;2022-10-19T15:02:32;6.25;;;2.30;;
58460;SDS011;45558;37.752;-97.822;2022-10-19T15:05:16;7.70;;;3.13;;
58460;SDS011;45558;37.752;-97.822;2022-10-19T15:07:45;8.75;;;3.13;;
58460;SDS011;45558;37.752;-97.822;2022-10-19T15:12:43;9.82;;;2.08;;
58460;SDS011;45558;37.752;-97.822;2022-10-19T15:15:12;10.02;;;2.53;;
58460;SDS011;45558;37.752;-97.822;2022-10-19T15:20:21;9.90;;;2.40;;
58460;SDS011;45558;37.752;-97.822;2022-10-19T15:22:51;12.35;;;2.83;;
58460;SDS011;45558;37.752;-97.822;2022-10-19T15:25:34;6.53;;;2.10;;
58460;SDS011;45558;37.752;-97.822;2022-10-19T15:28:20;8.10;;;2.47;;
58460;SDS011;45558;37.752;-97.822;2022-10-19T15:30:57;7.65;;;2.10;;
58460;SDS011;45558;37.752;-97.822;2022-10-19T15:33:23;6.05;;;2.15;;
58460;SDS011;45558;37.752;-97.822;2022-10-19T15:35:49;7.43;;;2.15;;
58460;SDS011;45558;37.752;-97.822;2022-10-19T15:38:25;5.70;;;2.60;;
58460;SDS011;45558;37.752;-97.822;2022-10-19T15:41:34;15.15;;;8.52;;
58460;SDS011;45558;37.752;-97.822;2022-10-19T15:43:49;11.18;;;4.57;;
58460;SDS011;45558;37.752;-97.822;2022-10-19T15:46:25;9.13;;;3.17;;
58460;SDS011;45558;37.752;-97.822;2022-10-19T15:52:13;14.68;;;3.03;;
58460;SDS011;45558;37.752;-97.822;2022-10-19T15:54:49;7.90;;;3.00;;
58460;SDS011;45558;37.752;-97.822;2022-10-19T15:59:58;12.70;;;2.47;;
58460;SDS011;45558;37.752;-97.822;2022-10-19T16:02:44;12.05;;;2.97;;
58460;SDS011;45558;37.752;-97.822;2022-10-19T16:05:10;15.60;;;3.90;;
58460;SDS011;45558;37.752;-97.822;2022-10-19T16:07:36;12.05;;;3.45;;
58460;SDS011;45558;37.752;-97.822;2022-10-19T16:10:03;14.95;;;3.42;;
58460;SDS011;45558;37.752;-97.822;2022-10-19T16:12:28;9.55;;;3.63;;
58460;SDS011;45558;37.752;-97.822;2022-10-19T16:14:54;13.82;;;3.63;;
58460;SDS011;45558;37.752;-97.822;2022-10-19T16:17:20;10.10;;;4.35;;
58460;SDS011;45558;37.752;-97.822;2022-10-19T16:19:45;14.40;;;6.97;;
58460;SDS011;45558;37.752;-97.822;2022-10-19T16:22:11;20.05;;;5.72;;
58460;SDS011;45558;37.752;-97.822;2022-10-19T16:24:38;17.33;;;5.47;;
58460;SDS011;45558;37.752;-97.822;2022-10-19T16:27:03;20.60;;;10.73;;
58460;SDS011;45558;37.752;-97.822;2022-10-19T16:29:29;26.13;;;12.68;;
58460;SDS011;45558;37.752;-97.822;2022-10-19T16:31:55;29.88;;;15.02;;
58460;SDS011;45558;37.752;-97.822;2022-10-19T16:34:20;5.43;;;3.35;;
58460;SDS011;45558;37.752;-97.822;2022-10-19T16:36:46;15.02;;;3.83;;
58460;SDS011;45558;37.752;-97.822;2022-10-19T16:39:11;17.13;;;5.88;;
58460;SDS011;45558;37.752;-97.822;2022-10-19T16:41:37;18.63;;;4.15;;
58460;SDS011;45558;37.752;-97.822;2022-10-19T16:44:02;18.75;;;3.67;;
58460;SDS011;45558;37.752;-97.822;2022-10-19T16:46:27;13.52;;;4.78;;
58460;SDS011;45558;37.752;-97.822;2022-10-19T16:48:53;14.93;;;4.90;;
58460;SDS011;45558;37.752;-97.822;2022-10-19T16:51:20;11.30;;;4.25;;
58460;SDS011;45558;37.752;-97.822;2022-10-19T16:53:52;15.60;;;5.28;;
58460;SDS011;45558;37.752;-97.822;2022-10-19T16:56:21;11.93;;;3.45;;
58460;SDS011;45558;37.752;-97.822;2022-10-19T16:58:49;16.20;;;3.75;;
58460;SDS011;45558;37.752;-97.822;2022-10-19T17:01:17;11.18;;;4.38;;
58460;SDS011;45558;37.752;-97.822;2022-10-19T17:03:43;16.58;;;3.85;;
58460;SDS011;45558;37.752;-97.822;2022-10-19T17:06:10;14.38;;;4.45;;
58460;SDS011;45558;37.752;-97.822;2022-10-19T17:08:36;10.90;;;3.92;;
58460;SDS011;45558;37.752;-97.822;2022-10-19T17:11:21;16.48;;;3.90;;